createdAt,value
2023-01-06T00:01:37.321Z,1.00
2023-01-06T00:04:05.648Z,1.40
2023-01-06T00:06:34.597Z,2.30
2023-01-06T00:09:05.040Z,2.20
2023-01-06T00:11:33.736Z,0.80
2023-01-06T00:14:02.125Z,2.80
2023-01-06T00:16:31.034Z,3.10
2023-01-06T00:19:00.313Z,3.10
2023-01-06T00:21:29.872Z,2.20
2023-01-06T00:23:58.457Z,2.70
2023-01-06T00:26:27.101Z,3.00
2023-01-06T00:28:57.090Z,3.00
2023-01-06T00:31:25.550Z,2.10
2023-01-06T00:33:57.566Z,2.00
2023-01-06T00:36:26.021Z,2.00
2023-01-06T00:38:54.441Z,1.30
2023-01-06T00:41:41.620Z,1.90
2023-01-06T00:44:10.620Z,2.20
2023-01-06T00:46:39.181Z,2.20
2023-01-06T00:49:08.015Z,2.20
2023-01-06T00:51:39.923Z,2.20
2023-01-06T00:54:11.267Z,1.90
2023-01-06T00:56:44.421Z,1.60
2023-01-06T00:59:16.009Z,1.90
2023-01-06T01:01:45.961Z,2.30
2023-01-06T01:04:16.113Z,2.10
2023-01-06T01:06:46.254Z,1.00
2023-01-06T01:09:22.125Z,1.50
2023-01-06T01:12:10.058Z,2.10
2023-01-06T01:14:49.818Z,1.10
2023-01-06T01:17:26.385Z,1.70
2023-01-06T01:19:57.700Z,1.70
2023-01-06T01:22:29.449Z,1.70
2023-01-06T01:24:57.912Z,1.90
2023-01-06T01:27:26.211Z,1.80
2023-01-06T01:29:54.492Z,2.00
2023-01-06T01:32:23.183Z,1.60
2023-01-06T01:34:51.513Z,2.00
2023-01-06T01:37:19.874Z,1.60
2023-01-06T01:39:49.200Z,1.70
2023-01-06T01:42:20.790Z,2.00
2023-01-06T01:45:03.540Z,1.80
2023-01-06T01:48:33.808Z,1.80
2023-01-06T01:51:06.354Z,1.60
2023-01-06T01:53:41.551Z,2.80
2023-01-06T01:56:18.341Z,2.50
2023-01-06T01:58:57.861Z,2.40
2023-01-06T02:01:26.896Z,2.70
2023-01-06T02:03:55.756Z,2.40
2023-01-06T02:06:26.382Z,3.30
2023-01-06T02:09:25.122Z,3.40
2023-01-06T02:11:54.331Z,2.30
2023-01-06T02:14:26.275Z,2.40
2023-01-06T02:17:42.821Z,1.90
2023-01-06T02:20:23.164Z,1.90
2023-01-06T02:23:28.731Z,1.90
2023-01-06T02:26:15.580Z,2.50
2023-01-06T02:29:30.834Z,2.50
2023-01-06T02:32:34.040Z,2.20
2023-01-06T02:35:42.917Z,2.40
2023-01-06T02:38:32.273Z,2.80
2023-01-06T02:41:12.082Z,2.50
2023-01-06T02:44:19.789Z,2.00
2023-01-06T02:47:05.882Z,2.90
2023-01-06T02:49:47.242Z,2.70
2023-01-06T02:52:52.998Z,3.10
2023-01-06T02:55:44.815Z,3.40
2023-01-06T02:58:34.602Z,3.60
2023-01-06T03:01:28.791Z,3.10
2023-01-06T03:04:02.326Z,4.00
2023-01-06T03:06:33.400Z,2.90
2023-01-06T03:09:05.423Z,3.10
2023-01-06T03:11:34.867Z,2.00
2023-01-06T03:14:28.828Z,2.00
2023-01-06T03:16:57.246Z,2.80
2023-01-06T03:19:26.199Z,2.30
2023-01-06T03:21:56.094Z,2.60
2023-01-06T03:24:24.572Z,2.80
2023-01-06T03:26:53.985Z,3.20
2023-01-06T03:29:23.336Z,2.80
2023-01-06T03:32:12.141Z,2.70
2023-01-06T03:34:49.879Z,2.50
2023-01-06T03:37:48.360Z,2.40
2023-01-06T03:40:43.882Z,2.60
2023-01-06T03:43:36.376Z,2.50
2023-01-06T03:46:34.739Z,3.20
2023-01-06T03:49:29.803Z,3.70
2023-01-06T03:52:18.017Z,2.90
2023-01-06T03:55:20.798Z,2.50
2023-01-06T03:57:55.881Z,2.40
2023-01-06T04:00:30.064Z,2.70
2023-01-06T04:03:00.701Z,3.00
2023-01-06T04:05:29.273Z,2.60
2023-01-06T04:07:57.818Z,3.30
2023-01-06T04:10:26.303Z,3.20
2023-01-06T04:12:54.664Z,2.70
2023-01-06T04:15:29.215Z,3.20
2023-01-06T04:17:57.640Z,1.90
2023-01-06T04:20:30.181Z,2.60
2023-01-06T04:22:58.974Z,3.10
2023-01-06T04:25:27.359Z,3.40
2023-01-06T04:27:55.689Z,2.50
2023-01-06T04:30:24.089Z,2.00
2023-01-06T04:32:52.422Z,2.70
2023-01-06T04:35:20.791Z,2.70
2023-01-06T04:37:49.073Z,2.30
2023-01-06T04:40:17.445Z,2.80
2023-01-06T04:43:04.337Z,2.80
2023-01-06T04:45:35.185Z,2.50
2023-01-06T04:48:03.689Z,1.60
2023-01-06T04:50:32.477Z,2.10
2023-01-06T04:53:00.847Z,2.10
2023-01-06T04:55:29.447Z,3.40
2023-01-06T04:57:57.830Z,2.40
2023-01-06T05:00:26.174Z,2.20
2023-01-06T05:02:54.539Z,2.50
2023-01-06T05:05:23.019Z,2.00
2023-01-06T05:07:55.042Z,3.80
2023-01-06T05:10:23.435Z,3.10
2023-01-06T05:12:51.825Z,2.90
2023-01-06T05:15:20.223Z,2.50
2023-01-06T05:17:48.580Z,3.00
2023-01-06T05:20:17.049Z,3.50
2023-01-06T05:22:45.390Z,3.00
2023-01-06T05:25:13.721Z,2.40
2023-01-06T05:27:42.160Z,3.50
2023-01-06T05:30:11.394Z,3.10
2023-01-06T05:32:39.708Z,3.80
2023-01-06T05:35:08.586Z,2.70
2023-01-06T05:37:36.983Z,3.30
2023-01-06T05:40:06.199Z,4.00
2023-01-06T05:42:34.592Z,3.10
2023-01-06T05:45:03.026Z,2.70
2023-01-06T05:47:31.335Z,3.30
2023-01-06T05:49:59.617Z,3.60
2023-01-06T05:52:27.961Z,3.80
2023-01-06T05:54:56.252Z,3.30
2023-01-06T05:57:24.537Z,2.50
2023-01-06T05:59:52.868Z,2.60
2023-01-06T06:02:21.214Z,2.40
2023-01-06T06:04:49.646Z,2.80
2023-01-06T06:07:18.200Z,3.10
2023-01-06T06:09:46.555Z,2.80
2023-01-06T06:12:15.180Z,1.90
2023-01-06T06:14:44.386Z,2.90
2023-01-06T06:17:12.688Z,3.30
2023-01-06T06:19:41.042Z,2.70
2023-01-06T06:22:10.738Z,2.20
2023-01-06T06:24:39.354Z,2.80
2023-01-06T06:27:07.704Z,3.80
2023-01-06T06:29:36.220Z,3.40
2023-01-06T06:32:05.197Z,3.50
2023-01-06T06:34:33.597Z,2.80
2023-01-06T06:37:01.920Z,2.80
2023-01-06T06:39:30.259Z,3.20
2023-01-06T06:41:58.688Z,2.80
2023-01-06T06:44:27.075Z,3.50
2023-01-06T06:46:55.381Z,3.00
2023-01-06T06:49:23.721Z,3.50
2023-01-06T06:51:52.046Z,3.00
2023-01-06T06:54:20.433Z,4.00
2023-01-06T06:56:48.878Z,5.90
2023-01-06T06:59:17.214Z,5.30
2023-01-06T07:01:45.609Z,6.30
2023-01-06T07:04:14.019Z,5.60
2023-01-06T07:06:42.360Z,6.40
2023-01-06T07:09:10.644Z,6.50
2023-01-06T07:11:39.040Z,6.30
2023-01-06T07:14:07.373Z,7.60
2023-01-06T07:16:35.655Z,7.50
2023-01-06T07:19:03.993Z,4.50
2023-01-06T07:21:32.277Z,5.90
2023-01-06T07:24:00.719Z,5.40
2023-01-06T07:26:29.037Z,5.50
2023-01-06T07:28:57.423Z,4.90
2023-01-06T07:31:25.776Z,4.90
2023-01-06T07:33:54.260Z,5.10
2023-01-06T07:36:22.611Z,4.90
2023-01-06T07:38:51.017Z,4.90
2023-01-06T07:41:19.448Z,4.00
2023-01-06T07:43:47.820Z,4.40
2023-01-06T07:46:16.192Z,4.60
2023-01-06T07:48:44.723Z,3.60
2023-01-06T07:51:13.187Z,3.90
2023-01-06T07:53:41.516Z,3.50
2023-01-06T07:56:09.949Z,3.30
2023-01-06T07:58:38.292Z,3.10
2023-01-06T08:01:08.697Z,3.50
2023-01-06T08:03:37.179Z,3.30
2023-01-06T08:06:11.000Z,3.10
2023-01-06T08:08:41.191Z,2.70
2023-01-06T08:11:14.254Z,3.20
2023-01-06T08:13:42.742Z,7.00
2023-01-06T08:16:11.409Z,8.30
2023-01-06T08:18:40.206Z,5.70
2023-01-06T08:21:11.144Z,5.10
2023-01-06T08:23:39.782Z,3.60
2023-01-06T08:26:18.079Z,3.80
2023-01-06T08:28:47.027Z,4.60
2023-01-06T08:31:19.227Z,4.80
2023-01-06T08:33:49.390Z,4.50
2023-01-06T08:36:21.190Z,5.00
2023-01-06T08:38:50.725Z,4.10
2023-01-06T08:41:19.982Z,3.40
2023-01-06T08:43:48.953Z,3.50
2023-01-06T08:46:20.259Z,3.70
2023-01-06T08:48:48.822Z,3.10
2023-01-06T08:51:23.544Z,3.30
2023-01-06T08:53:53.539Z,2.80
2023-01-06T08:56:29.732Z,3.40
2023-01-06T08:59:02.185Z,3.40
2023-01-06T09:01:36.485Z,3.50
2023-01-06T09:04:07.786Z,3.80
2023-01-06T09:06:37.708Z,4.30
2023-01-06T09:09:08.636Z,3.80
2023-01-06T09:11:37.435Z,3.20
2023-01-06T09:14:05.778Z,4.60
2023-01-06T09:16:34.159Z,4.00
2023-01-06T09:19:02.620Z,4.80
2023-01-06T09:21:31.066Z,4.80
2023-01-06T09:23:59.452Z,3.60
2023-01-06T09:26:27.858Z,3.70
2023-01-06T09:28:56.245Z,3.40
2023-01-06T09:31:24.591Z,2.70
2023-01-06T09:33:53.248Z,2.50
2023-01-06T09:36:22.197Z,2.80
2023-01-06T09:38:50.601Z,2.50
2023-01-06T09:42:21.751Z,3.20
2023-01-06T09:45:18.523Z,3.80
2023-01-06T09:47:57.272Z,2.50
2023-01-06T09:50:41.508Z,3.30
2023-01-06T09:53:41.213Z,3.60
2023-01-06T09:56:17.653Z,3.10
2023-01-06T09:58:54.723Z,3.30
2023-01-06T10:01:32.945Z,3.30
2023-01-06T10:04:01.501Z,3.00
2023-01-06T10:07:05.285Z,2.90
2023-01-06T10:10:41.502Z,2.70
2023-01-06T10:14:01.108Z,3.30
2023-01-06T10:16:49.196Z,4.00
2023-01-06T10:19:58.914Z,4.30
2023-01-06T10:23:17.848Z,4.00
2023-01-06T10:25:56.987Z,5.40
2023-01-06T10:28:34.605Z,3.80
2023-01-06T10:31:12.349Z,5.10
2023-01-06T10:33:53.098Z,5.40
2023-01-06T10:36:39.800Z,5.00
2023-01-06T10:39:22.614Z,4.00
2023-01-06T10:42:30.368Z,3.10
2023-01-06T10:44:58.767Z,3.90
2023-01-06T10:47:33.358Z,3.50
2023-01-06T10:50:01.825Z,4.50
2023-01-06T10:52:31.902Z,4.50
2023-01-06T10:55:05.691Z,4.50
2023-01-06T10:57:40.243Z,4.00
2023-01-06T11:00:22.717Z,3.60
2023-01-06T11:03:19.541Z,4.60
2023-01-06T11:06:03.142Z,4.50
2023-01-06T11:08:32.810Z,3.80
2023-01-06T11:11:01.391Z,3.90
2023-01-06T11:13:36.377Z,4.20
2023-01-06T11:16:21.638Z,5.10
2023-01-06T11:19:06.651Z,5.20
2023-01-06T11:21:49.656Z,4.50
2023-01-06T11:24:25.319Z,5.30
2023-01-06T11:27:14.651Z,3.70
2023-01-06T11:29:43.044Z,3.80
2023-01-06T11:32:29.219Z,4.10
2023-01-06T11:35:04.685Z,5.30
2023-01-06T11:40:20.057Z,5.00
2023-01-06T11:42:54.941Z,6.20
2023-01-06T11:45:38.389Z,5.00
2023-01-06T11:48:17.513Z,5.10
2023-01-06T11:51:05.265Z,4.60
2023-01-06T11:53:37.107Z,5.20
2023-01-06T11:56:21.874Z,4.60
2023-01-06T11:58:56.115Z,4.00
2023-01-06T12:01:33.181Z,5.30
2023-01-06T12:04:42.351Z,5.30
2023-01-06T12:07:47.309Z,4.80
2023-01-06T12:10:25.809Z,6.30
2023-01-06T12:12:54.245Z,5.20
2023-01-06T12:15:25.217Z,5.10
2023-01-06T12:18:11.101Z,5.10
2023-01-06T12:20:44.280Z,5.30
2023-01-06T12:23:26.083Z,6.10
2023-01-06T12:26:00.487Z,6.70
2023-01-06T12:28:42.243Z,5.80
2023-01-06T12:31:42.340Z,6.70
2023-01-06T12:34:29.494Z,6.00
2023-01-06T12:37:19.567Z,7.10
2023-01-06T12:40:27.642Z,6.50
2023-01-06T12:43:09.735Z,6.10
2023-01-06T12:45:56.507Z,6.60
2023-01-06T12:48:50.735Z,7.80
2023-01-06T12:51:28.521Z,8.10
2023-01-06T12:54:18.648Z,7.90
2023-01-06T12:57:26.038Z,8.00
2023-01-06T13:00:00.720Z,10.80
2023-01-06T13:02:54.012Z,8.60
2023-01-06T13:05:50.676Z,5.60
2023-01-06T13:08:53.910Z,5.70
2023-01-06T13:11:44.268Z,7.10
2023-01-06T13:14:29.295Z,6.60
2023-01-06T13:17:08.159Z,7.20
2023-01-06T13:19:56.111Z,8.00
2023-01-06T13:23:19.028Z,8.10
2023-01-06T13:26:34.484Z,7.90
2023-01-06T13:29:32.385Z,7.60
2023-01-06T13:32:39.622Z,7.50
2023-01-06T13:35:24.666Z,7.30
2023-01-06T13:38:30.554Z,7.40
2023-01-06T13:41:02.623Z,7.90
2023-01-06T13:43:34.138Z,7.60
2023-01-06T13:46:11.547Z,9.10
2023-01-06T13:48:45.946Z,9.10
2023-01-06T13:51:18.399Z,9.40
2023-01-06T13:53:50.270Z,8.40
2023-01-06T13:56:18.526Z,9.20
2023-01-06T13:58:49.349Z,9.10
2023-01-06T14:01:17.771Z,9.30
2023-01-06T14:03:51.563Z,8.30
2023-01-06T14:06:40.845Z,9.40
2023-01-06T14:09:18.825Z,9.70
2023-01-06T14:11:47.943Z,9.20
2023-01-06T14:14:28.683Z,9.70
2023-01-06T14:16:58.143Z,11.20
2023-01-06T14:19:32.365Z,10.90
2023-01-06T14:22:24.113Z,10.20
2023-01-06T14:24:59.589Z,11.50
2023-01-06T14:27:46.379Z,9.50
2023-01-06T14:30:31.585Z,10.30
2023-01-06T14:36:06.683Z,10.20
2023-01-06T14:38:48.029Z,9.60
2023-01-06T14:41:27.822Z,10.40
2023-01-06T14:44:06.618Z,11.50
2023-01-06T14:47:04.873Z,10.00
2023-01-06T14:49:46.955Z,10.60
2023-01-06T14:52:32.174Z,11.20
2023-01-06T14:55:02.961Z,9.70
2023-01-06T14:57:38.544Z,11.50
2023-01-06T15:00:30.165Z,10.30
2023-01-06T15:03:24.532Z,10.40
2023-01-06T15:06:21.013Z,11.10
2023-01-06T15:08:49.866Z,10.30
2023-01-06T15:11:26.341Z,10.00
2023-01-06T15:13:55.444Z,12.10
2023-01-06T15:16:32.913Z,12.60
2023-01-06T15:19:02.532Z,10.70
2023-01-06T15:21:31.170Z,12.30
2023-01-06T15:23:59.585Z,12.40
2023-01-06T15:26:29.853Z,12.60
2023-01-06T15:29:06.042Z,13.30
2023-01-06T15:31:39.275Z,16.10
2023-01-06T15:34:20.972Z,15.90
2023-01-06T15:36:53.323Z,13.00
2023-01-06T15:39:27.650Z,13.20
2023-01-06T15:41:58.624Z,13.40
2023-01-06T15:44:37.470Z,12.80
2023-01-06T15:47:11.185Z,13.30
2023-01-06T15:49:56.712Z,13.60
2023-01-06T15:52:30.148Z,12.70
2023-01-06T15:55:06.256Z,12.70
2023-01-06T15:57:39.031Z,11.60
2023-01-06T16:00:21.105Z,13.70
2023-01-06T16:02:50.260Z,13.90
2023-01-06T16:05:39.795Z,12.30
2023-01-06T16:08:22.730Z,13.90
2023-01-06T16:11:37.923Z,14.50
2023-01-06T16:14:24.126Z,13.30
2023-01-06T16:16:53.760Z,12.60
2023-01-06T16:19:22.960Z,14.30
2023-01-06T16:21:54.453Z,16.20
2023-01-06T16:24:29.049Z,13.80
2023-01-06T16:27:04.609Z,12.50
2023-01-06T16:29:38.583Z,13.90
2023-01-06T16:32:30.234Z,14.70
2023-01-06T16:35:07.092Z,13.80
2023-01-06T16:37:35.397Z,13.50
2023-01-06T16:40:04.548Z,15.20
2023-01-06T16:42:42.512Z,14.50
2023-01-06T16:45:37.904Z,13.40
2023-01-06T16:48:06.632Z,14.00
2023-01-06T16:50:38.324Z,12.40
2023-01-06T16:53:09.738Z,14.50
2023-01-06T16:55:40.259Z,13.30
2023-01-06T16:58:27.483Z,17.60
2023-01-06T17:00:59.302Z,25.30
2023-01-06T17:03:36.674Z,24.30
2023-01-06T17:06:19.374Z,19.40
2023-01-06T17:08:48.680Z,17.40
2023-01-06T17:11:21.346Z,26.30
2023-01-06T17:14:10.104Z,29.90
2023-01-06T17:16:41.540Z,20.50
2023-01-06T17:19:28.606Z,16.60
2023-01-06T17:22:04.182Z,18.10
2023-01-06T17:24:32.805Z,15.20
2023-01-06T17:27:27.898Z,14.80
2023-01-06T17:30:01.349Z,17.90
2023-01-06T17:32:35.051Z,12.60
2023-01-06T17:35:29.380Z,11.10
2023-01-06T17:38:02.485Z,13.70
2023-01-06T17:40:35.157Z,13.80
2023-01-06T17:43:33.801Z,19.60
2023-01-06T17:46:03.529Z,12.70
2023-01-06T17:48:32.244Z,12.30
2023-01-06T17:51:00.666Z,10.60
2023-01-06T17:53:55.209Z,6.90
2023-01-06T17:56:25.464Z,5.90
2023-01-06T17:58:53.788Z,5.40
2023-01-06T18:01:27.135Z,5.50
2023-01-06T18:03:59.665Z,10.20
2023-01-06T18:06:37.926Z,14.00
2023-01-06T18:09:16.823Z,15.00
2023-01-06T18:11:56.324Z,13.40
2023-01-06T18:14:33.660Z,10.00
2023-01-06T18:17:25.222Z,8.30
2023-01-06T18:19:53.886Z,8.40
2023-01-06T18:22:24.522Z,9.40
2023-01-06T18:24:56.366Z,7.40
2023-01-06T18:27:29.517Z,6.70
2023-01-06T18:30:16.627Z,7.70
2023-01-06T18:32:46.160Z,9.70
2023-01-06T18:35:25.149Z,10.40
2023-01-06T18:37:54.792Z,9.20
2023-01-06T18:40:25.255Z,9.60
2023-01-06T18:42:55.881Z,9.40
2023-01-06T18:45:35.143Z,9.80
2023-01-06T18:48:25.109Z,9.90
2023-01-06T18:50:56.082Z,9.70
2023-01-06T18:53:34.821Z,9.70
2023-01-06T18:56:17.343Z,9.00
2023-01-06T18:58:54.622Z,9.00
2023-01-06T19:01:38.465Z,9.90
2023-01-06T19:04:24.838Z,8.40
2023-01-06T19:06:56.579Z,7.30
2023-01-06T19:09:41.903Z,8.10
2023-01-06T19:12:33.156Z,7.10
2023-01-06T19:15:22.723Z,6.20
2023-01-06T19:17:53.895Z,7.40
2023-01-06T19:20:29.230Z,7.70
2023-01-06T19:25:34.882Z,7.80
2023-01-06T19:28:15.573Z,8.30
2023-01-06T19:30:49.201Z,7.40
2023-01-06T19:33:53.122Z,7.40
2023-01-06T19:36:44.009Z,6.00
2023-01-06T19:39:36.753Z,4.90
2023-01-06T19:42:08.051Z,5.60
2023-01-06T19:44:38.571Z,5.10
2023-01-06T19:47:22.669Z,5.00
2023-01-06T19:49:56.025Z,4.40
2023-01-06T19:52:40.579Z,4.70
2023-01-06T19:55:18.227Z,5.40
2023-01-06T19:58:00.054Z,3.50
2023-01-06T20:00:38.067Z,3.10
2023-01-06T20:03:25.550Z,3.20
2023-01-06T20:05:54.027Z,4.90
2023-01-06T20:08:22.431Z,4.00
2023-01-06T20:10:50.796Z,3.90
2023-01-06T20:13:19.118Z,3.70
2023-01-06T20:15:47.522Z,3.70
2023-01-06T20:18:15.983Z,3.20
2023-01-06T20:20:44.394Z,4.40
2023-01-06T20:23:12.758Z,4.70
2023-01-06T20:25:41.230Z,3.80
2023-01-06T20:28:09.626Z,4.10
2023-01-06T20:30:37.903Z,3.70
2023-01-06T20:33:06.926Z,4.80
2023-01-06T20:35:35.240Z,4.90
2023-01-06T20:38:03.712Z,5.00
2023-01-06T20:40:32.000Z,6.50
2023-01-06T20:43:00.464Z,5.60
2023-01-06T20:45:28.773Z,5.80
2023-01-06T20:47:57.681Z,5.90
2023-01-06T20:50:27.774Z,5.60
2023-01-06T20:52:56.200Z,4.70
2023-01-06T20:55:25.140Z,6.10
2023-01-06T20:57:53.519Z,6.50
2023-01-06T21:00:22.008Z,4.80
2023-01-06T21:02:50.356Z,6.20
2023-01-06T21:05:20.977Z,5.80
2023-01-06T21:07:49.340Z,5.40
2023-01-06T21:10:17.748Z,7.80
2023-01-06T21:12:46.202Z,8.20
2023-01-06T21:15:14.969Z,8.80
2023-01-06T21:17:43.427Z,8.00
2023-01-06T21:20:12.189Z,7.20
2023-01-06T21:22:40.516Z,3.80
2023-01-06T21:25:09.631Z,3.60
2023-01-06T21:27:37.991Z,4.00
2023-01-06T21:30:07.007Z,3.70
2023-01-06T21:32:35.365Z,4.50
2023-01-06T21:35:03.926Z,3.70
2023-01-06T21:37:32.290Z,3.70
2023-01-06T21:40:00.888Z,4.20
2023-01-06T21:42:47.769Z,5.10
2023-01-06T21:45:16.323Z,3.90
2023-01-06T21:47:44.689Z,3.40
2023-01-06T21:50:13.052Z,3.40
2023-01-06T21:52:41.468Z,4.20
2023-01-06T21:55:10.901Z,5.50
2023-01-06T21:57:39.493Z,4.70
2023-01-06T22:00:10.481Z,5.40
2023-01-06T22:02:38.948Z,5.40
2023-01-06T22:05:08.428Z,5.00
2023-01-06T22:07:40.720Z,4.90
2023-01-06T22:10:11.695Z,4.90
2023-01-06T22:12:43.381Z,3.90
2023-01-06T22:15:13.733Z,4.10
2023-01-06T22:17:42.143Z,3.30
2023-01-06T22:20:12.340Z,3.60
2023-01-06T22:22:41.627Z,4.40
2023-01-06T22:25:10.295Z,3.70
2023-01-06T22:27:39.078Z,3.10
2023-01-06T22:30:08.648Z,3.90
2023-01-06T22:32:48.648Z,3.30
2023-01-06T22:35:18.312Z,3.40
2023-01-06T22:37:46.794Z,4.20
2023-01-06T22:40:15.232Z,3.90
2023-01-06T22:42:43.999Z,4.20
2023-01-06T22:45:13.005Z,6.30
2023-01-06T22:47:41.538Z,4.50
2023-01-06T22:50:11.049Z,3.90
2023-01-06T22:52:39.428Z,3.30
2023-01-06T22:55:08.577Z,4.30
2023-01-06T22:57:36.916Z,5.00
2023-01-06T23:00:15.594Z,5.50
2023-01-06T23:02:44.509Z,7.60
2023-01-06T23:05:12.973Z,6.90
2023-01-06T23:07:43.355Z,6.00
2023-01-06T23:10:14.900Z,5.10
2023-01-06T23:12:43.456Z,6.90
2023-01-06T23:15:12.007Z,6.60
2023-01-06T23:17:40.484Z,8.20
2023-01-06T23:20:09.701Z,8.40
2023-01-06T23:22:38.042Z,7.50
2023-01-06T23:25:07.040Z,5.60
2023-01-06T23:27:38.138Z,5.80
2023-01-06T23:30:07.487Z,4.40
2023-01-06T23:32:35.826Z,4.20
2023-01-06T23:35:04.527Z,5.10
2023-01-06T23:37:34.051Z,6.30
2023-01-06T23:40:02.409Z,6.60
2023-01-06T23:42:34.490Z,7.10
2023-01-06T23:45:06.295Z,7.20
2023-01-06T23:47:34.686Z,6.70
2023-01-06T23:50:03.243Z,4.70
2023-01-06T23:52:31.568Z,4.90
2023-01-06T23:54:59.920Z,5.60
2023-01-06T23:57:28.408Z,4.90
2023-01-06T23:59:56.747Z,4.60
